Tillson, New York
Current Conditions -  °F | °C
As of 10:53 PM on Saturday 24 Jan 2015 (Local Time) from KPOU Reporting Station
Overcast Overcast  
Wind Chill: 31°   Ceiling: 8000
Heat Index: 31°   Visibility: 9mi
Dew Point: 26°   Wind: 3mph
Humidity: 82%   Direction: 270°W
Pressure: 29.44"   Gusts: NA
Location:  41.83°N, 74.07°W
Report Text: KPOU 250353Z 27003KT 9SM OVC080 M01/M03 A2944 RMK AO2 SLP968 T10061033
Loading
Personal Weather Stations






























Interactive Weather Map New forecast layout! Learn more

10-Day Weather Forecast

Advertisements
Track Severe Weather on mobile